createdAt,value
2023-02-06T00:00:17.788Z,11.73
2023-02-06T00:02:44.573Z,10.40
2023-02-06T00:05:11.481Z,10.43
2023-02-06T00:07:38.441Z,11.80
2023-02-06T00:10:05.337Z,10.80
2023-02-06T00:12:32.171Z,10.70
2023-02-06T00:14:59.162Z,9.77
2023-02-06T00:17:25.910Z,10.63
2023-02-06T00:19:52.724Z,10.50
2023-02-06T00:22:19.516Z,12.13
2023-02-06T00:24:46.326Z,11.90
2023-02-06T00:27:13.096Z,11.77
2023-02-06T00:29:39.914Z,12.10
2023-02-06T00:32:06.721Z,11.43
2023-02-06T00:34:33.583Z,11.87
2023-02-06T00:37:00.468Z,12.03
2023-02-06T00:39:27.299Z,12.93
2023-02-06T00:41:55.918Z,12.00
2023-02-06T00:44:23.449Z,12.27
2023-02-06T00:46:50.361Z,11.43
2023-02-06T00:49:17.491Z,12.03
2023-02-06T00:51:44.325Z,11.13
2023-02-06T00:54:11.161Z,10.87
2023-02-06T00:56:37.987Z,11.53
2023-02-06T00:59:04.841Z,11.70
2023-02-06T01:01:32.027Z,12.17
2023-02-06T01:03:58.845Z,10.73
2023-02-06T01:06:25.753Z,12.00
2023-02-06T01:08:52.871Z,12.27
2023-02-06T01:11:21.074Z,11.67
2023-02-06T01:13:48.185Z,11.73
2023-02-06T01:16:17.887Z,12.00
2023-02-06T01:18:44.741Z,11.60
2023-02-06T01:21:12.963Z,11.20
2023-02-06T01:23:40.147Z,11.77
2023-02-06T01:26:07.431Z,12.03
2023-02-06T01:28:39.064Z,13.20
2023-02-06T01:31:12.482Z,14.23
2023-02-06T01:33:39.744Z,13.27
2023-02-06T01:36:07.057Z,13.77
2023-02-06T01:38:34.017Z,13.00
2023-02-06T01:41:02.589Z,12.80
2023-02-06T01:43:30.934Z,13.67
2023-02-06T01:45:57.790Z,13.23
2023-02-06T01:48:31.994Z,13.23
2023-02-06T01:50:59.541Z,12.50
2023-02-06T01:53:26.686Z,12.57
2023-02-06T01:55:54.606Z,11.87
2023-02-06T01:58:26.386Z,10.93
2023-02-06T02:00:53.424Z,11.97
2023-02-06T02:03:20.320Z,12.43
2023-02-06T02:05:47.607Z,12.53
2023-02-06T02:08:26.071Z,12.67
2023-02-06T02:10:52.937Z,12.13
2023-02-06T02:13:19.762Z,12.50
2023-02-06T02:15:53.206Z,13.43
2023-02-06T02:18:20.059Z,13.20
2023-02-06T02:21:15.155Z,12.47
2023-02-06T02:23:42.139Z,13.27
2023-02-06T02:26:08.866Z,13.20
2023-02-06T02:28:51.928Z,12.47
2023-02-06T02:31:34.568Z,12.37
2023-02-06T02:34:20.297Z,12.30
2023-02-06T02:36:51.922Z,12.17
2023-02-06T02:39:21.639Z,13.33
2023-02-06T02:41:52.283Z,13.03
2023-02-06T02:44:19.476Z,12.77
2023-02-06T02:46:49.354Z,12.83
2023-02-06T02:49:21.835Z,13.20
2023-02-06T02:51:50.512Z,13.17
2023-02-06T02:54:18.148Z,13.30
2023-02-06T02:56:45.008Z,13.60
2023-02-06T02:59:16.824Z,13.37
2023-02-06T03:01:50.115Z,13.03
2023-02-06T03:04:19.547Z,13.07
2023-02-06T03:06:50.497Z,13.47
2023-02-06T03:09:36.314Z,13.57
2023-02-06T03:12:06.134Z,13.80
2023-02-06T03:14:41.566Z,14.73
2023-02-06T03:17:10.766Z,15.23
2023-02-06T03:19:45.584Z,15.60
2023-02-06T03:22:13.263Z,15.13
2023-02-06T03:24:40.049Z,15.63
2023-02-06T03:27:14.981Z,14.20
2023-02-06T03:29:42.817Z,15.00
2023-02-06T03:32:12.748Z,14.87
2023-02-06T03:34:53.955Z,15.40
2023-02-06T03:37:21.421Z,15.47
2023-02-06T03:39:48.393Z,16.80
2023-02-06T03:42:16.536Z,16.80
2023-02-06T03:44:48.911Z,16.93
2023-02-06T03:47:16.907Z,18.00
2023-02-06T03:49:45.517Z,18.60
2023-02-06T03:52:23.740Z,19.97
2023-02-06T03:54:53.341Z,20.77
2023-02-06T03:57:21.636Z,21.63
2023-02-06T03:59:48.815Z,21.87
2023-02-06T04:02:16.932Z,24.73
2023-02-06T04:04:44.930Z,23.93
2023-02-06T04:07:20.322Z,23.37
2023-02-06T04:09:47.203Z,22.83
2023-02-06T04:12:15.579Z,23.73
2023-02-06T04:14:42.972Z,23.70
2023-02-06T04:17:10.173Z,24.13
2023-02-06T04:19:37.292Z,24.63
2023-02-06T04:22:05.605Z,24.77
2023-02-06T04:24:32.757Z,24.40
2023-02-06T04:26:59.554Z,25.67
2023-02-06T04:29:26.585Z,27.73
2023-02-06T04:31:53.337Z,26.87
2023-02-06T04:34:20.126Z,28.77
2023-02-06T04:36:47.333Z,25.83
2023-02-06T04:39:14.090Z,30.90
2023-02-06T04:41:40.960Z,34.37
2023-02-06T04:44:07.772Z,34.93
2023-02-06T04:46:34.645Z,41.50
2023-02-06T04:49:01.401Z,49.00
2023-02-06T04:51:28.338Z,77.87
2023-02-06T04:53:55.090Z,98.47
2023-02-06T04:56:21.984Z,52.77
2023-02-06T04:58:48.767Z,50.30
2023-02-06T05:01:17.160Z,35.30
2023-02-06T05:03:44.189Z,37.20
2023-02-06T05:06:11.044Z,30.13
2023-02-06T05:08:38.041Z,29.67
2023-02-06T05:11:04.898Z,28.20
2023-02-06T05:13:31.760Z,28.47
2023-02-06T05:16:04.379Z,27.33
2023-02-06T05:18:31.207Z,26.40
2023-02-06T05:20:58.231Z,25.83
2023-02-06T05:23:25.074Z,25.97
2023-02-06T05:25:52.375Z,24.17
2023-02-06T05:28:19.276Z,25.17
2023-02-06T05:30:46.494Z,24.73
2023-02-06T05:33:13.320Z,25.30
2023-02-06T05:35:40.644Z,24.77
2023-02-06T05:38:07.490Z,25.10
2023-02-06T05:40:34.370Z,24.37
2023-02-06T05:43:01.240Z,25.80
2023-02-06T05:45:28.056Z,25.37
2023-02-06T05:47:54.933Z,22.47
2023-02-06T05:50:21.701Z,24.07
2023-02-06T05:52:48.536Z,23.10
2023-02-06T05:55:17.167Z,23.37
2023-02-06T05:57:44.603Z,23.43
2023-02-06T06:00:12.194Z,24.10
2023-02-06T06:02:39.323Z,24.17
2023-02-06T06:05:06.419Z,23.43
2023-02-06T06:07:33.303Z,24.10
2023-02-06T06:10:00.052Z,31.90
2023-02-06T06:12:26.885Z,32.93
2023-02-06T06:14:53.736Z,29.50
2023-02-06T06:17:20.988Z,28.23
2023-02-06T06:19:47.791Z,36.23
2023-02-06T06:22:15.153Z,23.70
2023-02-06T06:24:41.914Z,27.97
2023-02-06T06:27:10.842Z,28.03
2023-02-06T06:29:37.633Z,28.30
2023-02-06T06:32:04.661Z,27.80
2023-02-06T06:34:31.629Z,30.97
2023-02-06T06:36:58.831Z,30.50
2023-02-06T06:39:25.616Z,28.27
2023-02-06T06:41:52.425Z,25.13
2023-02-06T06:44:19.295Z,28.03
2023-02-06T06:46:46.195Z,27.23
2023-02-06T06:49:12.958Z,25.07
2023-02-06T06:51:39.984Z,32.33
2023-02-06T06:54:06.816Z,27.93
2023-02-06T06:56:33.594Z,27.43
2023-02-06T06:59:00.386Z,29.00
2023-02-06T07:01:27.228Z,32.93
2023-02-06T07:03:54.025Z,30.73
2023-02-06T07:06:20.996Z,31.10
2023-02-06T07:08:47.913Z,30.03
2023-02-06T07:11:15.509Z,27.30
2023-02-06T07:13:42.905Z,26.20
2023-02-06T07:16:09.792Z,26.47
2023-02-06T07:18:36.629Z,25.07
2023-02-06T07:21:04.380Z,26.13
2023-02-06T07:23:31.139Z,25.83
2023-02-06T07:26:02.422Z,26.40
2023-02-06T07:28:30.165Z,24.73
2023-02-06T07:31:03.936Z,25.47
2023-02-06T07:33:30.899Z,24.40
2023-02-06T07:35:58.003Z,22.07
2023-02-06T07:38:25.140Z,21.97
2023-02-06T07:40:51.966Z,20.90
2023-02-06T07:43:18.980Z,21.90
2023-02-06T07:45:46.036Z,20.57
2023-02-06T07:48:13.053Z,20.47
2023-02-06T07:50:39.865Z,19.70
2023-02-06T07:53:07.979Z,19.77
2023-02-06T07:55:37.401Z,19.40
2023-02-06T07:58:04.493Z,20.97
2023-02-06T08:00:31.297Z,18.73
2023-02-06T08:02:58.721Z,20.53
2023-02-06T08:05:25.763Z,20.47
2023-02-06T08:07:52.818Z,20.00
2023-02-06T08:10:20.267Z,19.30
2023-02-06T08:12:47.114Z,20.53
2023-02-06T08:15:14.045Z,19.97
2023-02-06T08:17:43.307Z,19.40
2023-02-06T08:20:10.497Z,18.13
2023-02-06T08:22:37.637Z,17.80
2023-02-06T08:25:05.284Z,16.47
2023-02-06T08:27:32.314Z,17.30
2023-02-06T08:29:59.563Z,19.17
2023-02-06T08:32:26.792Z,14.93
2023-02-06T08:34:53.527Z,16.13
2023-02-06T08:37:20.398Z,16.30
2023-02-06T08:39:47.240Z,16.20
2023-02-06T08:42:14.106Z,18.20
2023-02-06T08:44:40.879Z,18.87
2023-02-06T08:47:10.300Z,19.67
2023-02-06T08:49:37.752Z,21.03
2023-02-06T08:52:04.730Z,18.80
2023-02-06T08:54:34.542Z,17.77
2023-02-06T08:57:02.746Z,18.20
2023-02-06T08:59:29.762Z,14.77
2023-02-06T09:01:56.655Z,17.23
2023-02-06T09:04:23.576Z,17.07
2023-02-06T09:06:52.240Z,12.70
2023-02-06T09:09:19.213Z,13.43
2023-02-06T09:11:46.544Z,8.73
2023-02-06T09:14:14.850Z,8.53
2023-02-06T09:16:42.072Z,11.20
2023-02-06T09:19:10.809Z,7.33
2023-02-06T09:21:38.009Z,8.33
2023-02-06T09:24:06.794Z,10.37
2023-02-06T09:26:38.927Z,13.40
2023-02-06T09:29:08.510Z,13.73
2023-02-06T09:31:37.333Z,14.10
2023-02-06T09:34:04.858Z,12.93
2023-02-06T09:36:33.906Z,13.60
2023-02-06T09:39:01.421Z,11.10
2023-02-06T09:41:43.348Z,9.40
2023-02-06T09:44:17.160Z,12.47
2023-02-06T09:46:48.949Z,12.60
2023-02-06T09:49:19.016Z,17.60
2023-02-06T09:52:06.945Z,13.17
2023-02-06T09:54:39.994Z,12.83
2023-02-06T09:57:20.227Z,14.87
2023-02-06T09:59:54.878Z,26.57
2023-02-06T10:02:24.526Z,12.27
2023-02-06T10:05:10.795Z,13.67
2023-02-06T10:07:52.828Z,16.30
2023-02-06T10:10:38.215Z,12.23
2023-02-06T10:13:31.526Z,14.93
2023-02-06T10:16:01.019Z,12.17
2023-02-06T10:18:33.586Z,12.87
2023-02-06T10:21:10.854Z,12.30
2023-02-06T10:23:41.711Z,9.90
2023-02-06T10:26:18.342Z,11.37
2023-02-06T10:28:48.303Z,12.17
2023-02-06T10:31:15.247Z,11.47
2023-02-06T10:33:42.088Z,10.87
2023-02-06T10:36:11.919Z,10.63
2023-02-06T10:39:08.206Z,10.27
2023-02-06T10:41:49.604Z,12.50
2023-02-06T10:44:23.190Z,12.03
2023-02-06T10:46:54.353Z,12.33
2023-02-06T10:49:33.566Z,12.40
2023-02-06T10:52:01.339Z,14.57
2023-02-06T10:54:39.459Z,15.27
2023-02-06T10:57:13.730Z,19.23
2023-02-06T10:59:43.738Z,12.70
2023-02-06T11:02:12.091Z,11.73
2023-02-06T11:04:40.420Z,12.83
2023-02-06T11:07:18.625Z,10.70
2023-02-06T11:09:45.528Z,16.30
2023-02-06T11:12:32.909Z,35.63
2023-02-06T11:15:02.337Z,22.87
2023-02-06T11:17:30.718Z,16.73
2023-02-06T11:20:03.673Z,14.57
2023-02-06T11:22:34.891Z,13.07
2023-02-06T11:25:19.049Z,14.73
2023-02-06T11:27:45.954Z,12.13
2023-02-06T11:30:25.193Z,13.63
2023-02-06T11:33:04.302Z,13.20
2023-02-06T11:35:35.401Z,12.67
2023-02-06T11:38:05.653Z,11.97
2023-02-06T11:40:32.587Z,15.53
2023-02-06T11:43:18.494Z,12.63
2023-02-06T11:45:47.527Z,12.57
2023-02-06T11:48:34.768Z,12.93
2023-02-06T11:51:02.110Z,13.20
2023-02-06T11:53:28.889Z,13.07
2023-02-06T11:56:04.043Z,13.17
2023-02-06T11:58:31.213Z,13.90
2023-02-06T12:01:00.605Z,14.73
2023-02-06T12:03:31.097Z,14.37
2023-02-06T12:06:02.856Z,15.80
2023-02-06T12:08:39.901Z,15.27
2023-02-06T12:11:12.491Z,14.47
2023-02-06T12:13:42.900Z,14.43
2023-02-06T12:16:11.826Z,14.57
2023-02-06T12:18:40.136Z,15.30
2023-02-06T12:21:18.945Z,14.40
2023-02-06T12:23:56.463Z,15.20
2023-02-06T12:26:25.420Z,15.10
2023-02-06T12:29:10.986Z,13.73
2023-02-06T12:31:42.143Z,15.47
2023-02-06T12:34:20.338Z,17.10
2023-02-06T12:36:54.834Z,17.07
2023-02-06T12:39:23.194Z,15.93
2023-02-06T12:42:04.459Z,16.70
2023-02-06T12:44:47.245Z,16.67
2023-02-06T12:47:20.264Z,15.73
2023-02-06T12:50:13.217Z,15.30
2023-02-06T12:52:40.184Z,15.53
2023-02-06T12:55:12.225Z,17.23
2023-02-06T12:57:39.630Z,16.60
2023-02-06T13:00:15.237Z,16.47
2023-02-06T13:03:01.585Z,16.27
2023-02-06T13:05:32.991Z,14.83
2023-02-06T13:08:04.810Z,15.57
2023-02-06T13:10:31.906Z,14.70
2023-02-06T13:12:59.226Z,15.33
2023-02-06T13:15:35.349Z,15.33
2023-02-06T13:18:02.438Z,15.47
2023-02-06T13:20:29.224Z,14.63
2023-02-06T13:23:15.145Z,15.57
2023-02-06T13:25:42.033Z,15.63
2023-02-06T13:28:21.967Z,15.03
2023-02-06T13:30:50.979Z,12.93
2023-02-06T13:33:20.242Z,14.40
2023-02-06T13:36:00.898Z,13.70
2023-02-06T13:38:28.686Z,15.50
2023-02-06T13:41:16.649Z,17.33
2023-02-06T13:43:58.560Z,17.20
2023-02-06T13:46:31.448Z,17.93
2023-02-06T13:49:01.610Z,17.53
2023-02-06T13:51:47.028Z,19.00
2023-02-06T13:54:16.737Z,16.97
2023-02-06T13:56:55.375Z,15.27
2023-02-06T13:59:28.798Z,14.63
2023-02-06T14:01:56.182Z,15.30
2023-02-06T14:04:26.670Z,16.60
2023-02-06T14:06:57.020Z,19.77
2023-02-06T14:09:43.914Z,15.93
2023-02-06T14:12:35.552Z,15.27
2023-02-06T14:15:02.426Z,16.67
2023-02-06T14:17:35.396Z,15.67
2023-02-06T14:20:08.357Z,15.87
2023-02-06T14:22:47.569Z,17.27
2023-02-06T14:25:17.570Z,16.60
2023-02-06T14:27:55.364Z,16.80
2023-02-06T14:30:25.170Z,17.37
2023-02-06T14:33:01.564Z,17.93
2023-02-06T14:35:31.364Z,16.27
2023-02-06T14:38:18.519Z,15.17
2023-02-06T14:40:49.362Z,15.63
2023-02-06T14:43:18.611Z,15.73
2023-02-06T14:46:04.240Z,16.70
2023-02-06T14:48:36.582Z,16.63
2023-02-06T14:51:03.807Z,16.70
2023-02-06T14:53:30.586Z,18.10
2023-02-06T14:56:08.195Z,22.50
2023-02-06T14:58:36.613Z,19.90
2023-02-06T15:01:14.412Z,25.97
2023-02-06T15:03:42.360Z,19.97
2023-02-06T15:06:12.985Z,27.07
2023-02-06T15:08:47.743Z,19.63
2023-02-06T15:11:18.783Z,22.17
2023-02-06T15:13:49.805Z,22.63
2023-02-06T15:16:16.747Z,61.13
2023-02-06T15:18:43.520Z,53.47
2023-02-06T15:21:21.347Z,20.50
2023-02-06T15:23:48.727Z,17.80
2023-02-06T15:26:35.751Z,22.90
2023-02-06T15:29:03.714Z,21.37
2023-02-06T15:31:31.112Z,28.63
2023-02-06T15:33:59.981Z,18.33
2023-02-06T15:36:33.939Z,17.63
2023-02-06T15:39:01.715Z,18.47
2023-02-06T15:41:31.100Z,23.80
2023-02-06T15:44:10.574Z,30.20
2023-02-06T15:46:38.200Z,25.20
2023-02-06T15:49:07.072Z,25.43
2023-02-06T15:51:41.229Z,28.43
2023-02-06T15:54:10.259Z,24.70
2023-02-06T15:56:38.299Z,23.10
2023-02-06T15:59:14.673Z,19.70
2023-02-06T16:01:42.366Z,19.67
2023-02-06T16:04:13.054Z,27.03
2023-02-06T16:06:40.008Z,34.77
2023-02-06T16:09:08.575Z,40.67
2023-02-06T16:11:47.714Z,45.80
2023-02-06T16:14:20.959Z,47.03
2023-02-06T16:17:06.174Z,47.87
2023-02-06T16:19:35.918Z,43.63
2023-02-06T16:22:13.042Z,43.87
2023-02-06T16:24:39.899Z,44.40
2023-02-06T16:27:20.967Z,41.33
2023-02-06T16:29:50.026Z,42.30
2023-02-06T16:32:18.542Z,39.77
2023-02-06T16:34:46.072Z,38.00
2023-02-06T16:37:20.410Z,38.63
2023-02-06T16:39:47.791Z,35.47
2023-02-06T16:42:24.869Z,33.47
2023-02-06T16:44:53.513Z,32.70
2023-02-06T16:47:21.339Z,31.33
2023-02-06T16:49:48.491Z,29.47
2023-02-06T16:52:17.848Z,30.47
2023-02-06T16:54:45.278Z,32.70
2023-02-06T16:57:21.580Z,31.97
2023-02-06T16:59:48.585Z,31.67
2023-02-06T17:02:15.725Z,35.63
2023-02-06T17:04:42.689Z,37.10
2023-02-06T17:07:28.688Z,49.70
2023-02-06T17:09:56.978Z,84.13
2023-02-06T17:12:23.834Z,100.37
2023-02-06T17:14:50.753Z,75.97
2023-02-06T17:17:19.312Z,49.57
2023-02-06T17:19:46.764Z,44.20
2023-02-06T17:22:13.798Z,40.47
2023-02-06T17:24:41.307Z,52.60
2023-02-06T17:27:12.408Z,46.57
2023-02-06T17:29:39.285Z,45.63
2023-02-06T17:32:07.115Z,45.90
2023-02-06T17:34:34.085Z,44.23
2023-02-06T17:37:01.516Z,48.70
2023-02-06T17:39:28.751Z,52.80
2023-02-06T17:41:55.653Z,47.80
2023-02-06T17:44:22.475Z,48.27
2023-02-06T17:46:49.946Z,49.80
2023-02-06T17:49:17.573Z,50.60
2023-02-06T17:51:44.794Z,50.80
2023-02-06T17:54:12.005Z,56.47
2023-02-06T17:56:39.009Z,54.53
2023-02-06T17:59:05.970Z,51.67
2023-02-06T18:01:33.204Z,43.93
2023-02-06T18:04:01.151Z,38.83
2023-02-06T18:06:31.753Z,40.57
2023-02-06T18:08:59.146Z,42.70
2023-02-06T18:11:25.907Z,43.10
2023-02-06T18:13:52.805Z,45.93
2023-02-06T18:16:24.151Z,54.03
2023-02-06T18:18:51.303Z,50.77
2023-02-06T18:21:21.739Z,52.83
2023-02-06T18:23:49.258Z,51.30
2023-02-06T18:26:16.290Z,46.73
2023-02-06T18:28:43.393Z,47.23
2023-02-06T18:31:24.575Z,47.70
2023-02-06T18:33:51.901Z,47.83
2023-02-06T18:36:18.947Z,51.03
2023-02-06T18:38:45.983Z,63.33
2023-02-06T18:41:32.804Z,58.07
2023-02-06T18:44:00.471Z,71.33
2023-02-06T18:46:27.327Z,59.47
2023-02-06T18:48:55.101Z,51.00
2023-02-06T18:51:22.030Z,50.97
2023-02-06T18:53:48.870Z,50.90
2023-02-06T18:56:15.761Z,53.97
2023-02-06T18:58:42.943Z,64.70
2023-02-06T19:01:17.417Z,60.20
2023-02-06T19:03:45.850Z,58.97
2023-02-06T19:06:17.139Z,63.63
2023-02-06T19:08:46.544Z,50.93
2023-02-06T19:11:14.189Z,51.53
2023-02-06T19:13:41.098Z,57.43
2023-02-06T19:16:12.351Z,57.67
2023-02-06T19:18:42.087Z,54.77
2023-02-06T19:21:15.916Z,56.83
2023-02-06T19:23:43.418Z,57.37
2023-02-06T19:26:11.765Z,56.63
2023-02-06T19:28:39.621Z,50.57
2023-02-06T19:31:07.179Z,62.93
2023-02-06T19:33:35.465Z,63.40
2023-02-06T19:36:09.978Z,63.77
2023-02-06T19:38:36.818Z,69.43
2023-02-06T19:41:06.998Z,70.47
2023-02-06T19:43:34.413Z,65.03
2023-02-06T19:46:05.522Z,60.90
2023-02-06T19:48:32.711Z,64.07
2023-02-06T19:51:07.437Z,54.90
2023-02-06T19:53:34.557Z,49.17
2023-02-06T19:56:02.123Z,44.93
2023-02-06T19:58:31.679Z,41.00
2023-02-06T20:00:59.842Z,41.33
2023-02-06T20:03:27.044Z,45.90
2023-02-06T20:05:54.102Z,47.67
2023-02-06T20:08:20.935Z,47.67
2023-02-06T20:10:47.836Z,47.53
2023-02-06T20:13:14.674Z,48.47
2023-02-06T20:15:41.518Z,48.03
2023-02-06T20:18:08.368Z,48.57
2023-02-06T20:20:35.725Z,49.80
2023-02-06T20:23:02.868Z,49.07
2023-02-06T20:25:30.178Z,48.97
2023-02-06T20:27:57.062Z,49.13
2023-02-06T20:30:24.523Z,47.33
2023-02-06T20:32:51.277Z,45.60
2023-02-06T20:35:18.291Z,46.13
2023-02-06T20:37:45.051Z,44.40
2023-02-06T20:40:12.120Z,44.33
2023-02-06T20:42:42.541Z,42.60
2023-02-06T20:45:09.604Z,42.67
2023-02-06T20:47:36.470Z,48.87
2023-02-06T20:50:05.983Z,49.70
2023-02-06T20:52:33.676Z,47.63
2023-02-06T20:55:00.671Z,50.47
2023-02-06T20:57:28.086Z,36.13
2023-02-06T20:59:55.160Z,57.20
2023-02-06T21:02:22.208Z,58.43
2023-02-06T21:04:52.474Z,50.70
2023-02-06T21:07:20.941Z,51.17
2023-02-06T21:09:48.349Z,41.43
2023-02-06T21:12:16.165Z,38.60
2023-02-06T21:14:43.112Z,38.17
2023-02-06T21:17:10.107Z,41.90
2023-02-06T21:19:37.193Z,43.63
2023-02-06T21:22:04.167Z,45.33
2023-02-06T21:24:31.192Z,47.73
2023-02-06T21:26:58.136Z,49.63
2023-02-06T21:29:24.963Z,49.27
2023-02-06T21:32:00.593Z,48.47
2023-02-06T21:34:34.273Z,48.10
2023-02-06T21:37:01.058Z,47.77
2023-02-06T21:39:28.892Z,47.03
2023-02-06T21:41:55.862Z,42.70
2023-02-06T21:44:24.204Z,38.37
2023-02-06T21:46:51.352Z,41.57
2023-02-06T21:49:18.893Z,43.17
2023-02-06T21:51:45.669Z,41.07
2023-02-06T21:54:12.593Z,42.73
2023-02-06T21:56:39.576Z,47.23
2023-02-06T21:59:06.684Z,48.37
2023-02-06T22:01:34.349Z,48.73
2023-02-06T22:04:02.206Z,48.17
2023-02-06T22:06:31.289Z,42.63
2023-02-06T22:09:05.721Z,41.33
2023-02-06T22:11:33.369Z,41.77
2023-02-06T22:14:01.056Z,46.67
2023-02-06T22:16:28.267Z,44.00
2023-02-06T22:18:55.588Z,45.37
2023-02-06T22:21:23.365Z,48.10
2023-02-06T22:23:50.774Z,44.07
2023-02-06T22:26:18.748Z,47.87
2023-02-06T22:28:45.948Z,45.07
2023-02-06T22:31:17.288Z,39.43
2023-02-06T22:33:44.956Z,45.07
2023-02-06T22:36:13.268Z,47.60
2023-02-06T22:38:40.995Z,47.93
2023-02-06T22:41:10.355Z,48.37
2023-02-06T22:43:38.421Z,46.50
2023-02-06T22:46:06.385Z,45.70
2023-02-06T22:48:33.874Z,44.20
2023-02-06T22:51:07.885Z,45.27
2023-02-06T22:53:35.233Z,44.00
2023-02-06T22:56:22.973Z,47.00
2023-02-06T22:58:51.176Z,51.70
2023-02-06T23:01:19.432Z,52.70
2023-02-06T23:03:47.005Z,48.37
2023-02-06T23:06:15.373Z,44.07
2023-02-06T23:08:43.163Z,50.43
2023-02-06T23:11:11.096Z,41.87
2023-02-06T23:13:39.851Z,45.00
2023-02-06T23:16:07.706Z,44.17
2023-02-06T23:18:36.123Z,36.80
2023-02-06T23:21:08.428Z,39.73
2023-02-06T23:23:36.282Z,46.30
2023-02-06T23:26:03.554Z,40.13
2023-02-06T23:28:30.952Z,41.33
2023-02-06T23:30:58.495Z,40.57
2023-02-06T23:33:25.964Z,61.27
2023-02-06T23:35:53.493Z,67.70
2023-02-06T23:38:21.455Z,72.50
2023-02-06T23:40:49.316Z,71.87
2023-02-06T23:43:16.712Z,70.53
2023-02-06T23:45:43.835Z,64.33
2023-02-06T23:48:11.449Z,63.27
2023-02-06T23:50:38.328Z,63.77
2023-02-06T23:53:05.334Z,61.47
2023-02-06T23:55:32.430Z,63.70
2023-02-06T23:58:00.144Z,61.80
